createdAt,value
2019-04-01T00:00:39.462Z,81.43
2019-04-01T00:01:39.353Z,80.95
2019-04-01T00:02:39.247Z,80.38
2019-04-01T00:03:39.138Z,80.95
2019-04-01T00:04:39.032Z,80.95
2019-04-01T00:05:38.925Z,80.95
2019-04-01T00:06:38.819Z,80.67
2019-04-01T00:07:38.710Z,81.05
2019-04-01T00:08:38.637Z,81.62
2019-04-01T00:09:38.796Z,81.52
2019-04-01T00:10:38.389Z,82.18
2019-04-01T00:11:38.281Z,81.71
2019-04-01T00:12:38.172Z,81.71
2019-04-01T00:13:38.068Z,81.24
2019-04-01T00:14:37.959Z,80.67
2019-04-01T00:15:37.849Z,81.43
2019-04-01T00:16:37.744Z,81.24
2019-04-01T00:17:37.639Z,81.05
2019-04-01T00:18:37.530Z,81.62
2019-04-01T00:19:37.424Z,81.71
2019-04-01T00:20:37.314Z,81.99
2019-04-01T00:21:37.209Z,82.47
2019-04-01T00:22:37.143Z,82.56
2019-04-01T00:23:37.004Z,82.94
2019-04-01T00:24:36.885Z,83.32
2019-04-01T00:25:36.780Z,83.56
2019-04-01T00:26:36.696Z,84.32
2019-04-01T00:27:36.639Z,84.89
2019-04-01T00:28:36.456Z,85.46
2019-04-01T00:29:36.350Z,86.03
2019-04-01T00:30:36.242Z,86.12
2019-04-01T00:31:36.134Z,86.12
2019-04-01T00:32:36.029Z,87.16
2019-04-01T00:33:36.001Z,86.79
2019-04-01T00:34:35.813Z,87.83
2019-04-01T00:35:35.705Z,88.49
2019-04-01T00:36:35.599Z,88.21
2019-04-01T00:37:35.491Z,88.49
2019-04-01T00:38:35.383Z,88.40
2019-04-01T00:39:35.275Z,88.68
2019-04-01T00:40:35.173Z,89.34
2019-04-01T00:41:35.061Z,89.25
2019-04-01T00:42:34.954Z,89.25
2019-04-01T00:43:34.847Z,89.63
2019-04-01T00:44:34.743Z,90.01
2019-04-01T00:45:34.662Z,90.01
2019-04-01T00:46:34.587Z,90.34
2019-04-01T00:47:34.416Z,90.44
2019-04-01T00:48:34.309Z,91.19
2019-04-01T00:49:34.205Z,91.10
2019-04-01T00:50:34.096Z,91.19
2019-04-01T00:51:33.985Z,91.67
2019-04-01T00:52:33.880Z,92.14
2019-04-01T00:53:33.771Z,92.14
2019-04-01T00:54:33.663Z,91.76
2019-04-01T00:55:33.559Z,92.43
2019-04-01T00:56:33.450Z,92.47
2019-04-01T00:57:33.342Z,92.38
2019-04-01T00:58:33.235Z,92.47
2019-04-01T00:59:33.126Z,92.19
2019-04-01T01:00:33.019Z,91.90
2019-04-01T01:01:32.913Z,92.57
2019-04-01T01:02:32.805Z,92.57
2019-04-01T01:03:32.697Z,92.09
2019-04-01T01:04:32.635Z,92.09
2019-04-01T01:05:32.492Z,93.13
2019-04-01T01:06:32.374Z,92.38
2019-04-01T01:07:32.268Z,93.23
2019-04-01T01:08:32.159Z,92.85
2019-04-01T01:09:32.154Z,93.04
2019-04-01T01:10:31.944Z,92.94
2019-04-01T01:11:31.836Z,93.13
2019-04-01T01:12:31.728Z,92.85
2019-04-01T01:13:31.620Z,93.04
2019-04-01T01:14:31.512Z,92.76
2019-04-01T01:15:31.407Z,92.85
2019-04-01T01:16:31.298Z,92.94
2019-04-01T01:17:31.192Z,92.66
2019-04-01T01:18:31.087Z,93.04
2019-04-01T01:19:30.977Z,93.13
2019-04-01T01:20:30.871Z,93.13
2019-04-01T01:21:30.763Z,92.85
2019-04-01T01:22:30.656Z,92.57
2019-04-01T01:23:30.590Z,93.32
2019-04-01T01:24:32.481Z,93.13
2019-04-01T01:25:30.329Z,93.04
2019-04-01T01:26:30.220Z,93.13
2019-04-01T01:27:30.112Z,93.08
2019-04-01T01:28:30.008Z,93.84
2019-04-01T01:29:29.898Z,93.84
2019-04-01T01:30:29.789Z,93.94
2019-04-01T01:31:29.680Z,93.89
2019-04-01T01:32:29.574Z,93.65
2019-04-01T01:33:29.467Z,93.99
2019-04-01T01:34:29.362Z,93.75
2019-04-01T01:35:29.251Z,94.37
2019-04-01T01:36:29.143Z,94.60
2019-04-01T01:37:29.037Z,93.75
2019-04-01T01:38:28.932Z,94.79
2019-04-01T01:39:28.819Z,93.56
2019-04-01T01:40:28.712Z,94.51
2019-04-01T01:41:28.605Z,94.23
2019-04-01T01:42:28.528Z,94.32
2019-04-01T01:43:28.390Z,94.32
2019-04-01T01:44:28.282Z,94.60
2019-04-01T01:45:28.172Z,94.79
2019-04-01T01:46:28.066Z,94.51
2019-04-01T01:47:27.958Z,95.45
2019-04-01T01:48:27.848Z,94.98
2019-04-01T01:49:27.743Z,94.79
2019-04-01T01:50:27.634Z,94.89
2019-04-01T01:51:27.527Z,95.74
2019-04-01T01:52:27.416Z,94.98
2019-04-01T01:53:27.311Z,95.36
2019-04-01T01:54:27.204Z,95.31
2019-04-01T01:55:27.095Z,95.31
2019-04-01T01:56:26.984Z,95.50
2019-04-01T01:57:26.879Z,95.97
2019-04-01T01:58:26.775Z,95.88
2019-04-01T01:59:26.663Z,95.78
2019-04-01T02:00:26.567Z,95.88
2019-04-01T02:01:26.500Z,95.50
2019-04-01T02:02:26.337Z,96.45
2019-04-01T02:03:26.233Z,95.97
2019-04-01T02:04:26.128Z,95.78
2019-04-01T02:05:26.015Z,96.26
2019-04-01T02:06:25.907Z,96.45
2019-04-01T02:07:25.797Z,95.88
2019-04-01T02:08:25.695Z,95.78
2019-04-01T02:09:25.584Z,96.83
2019-04-01T02:10:25.477Z,96.26
2019-04-01T02:11:25.369Z,95.78
2019-04-01T02:12:25.260Z,96.64
2019-04-01T02:13:25.152Z,96.83
2019-04-01T02:14:25.045Z,96.64
2019-04-01T02:15:24.941Z,97.11
2019-04-01T02:16:24.828Z,96.73
2019-04-01T02:17:24.721Z,96.73
2019-04-01T02:18:24.612Z,96.35
2019-04-01T02:19:24.851Z,96.26
2019-04-01T02:20:24.467Z,96.73
2019-04-01T02:21:24.287Z,96.54
2019-04-01T02:22:24.179Z,96.83
2019-04-01T02:23:24.099Z,96.64
2019-04-01T02:24:23.964Z,96.83
2019-04-01T02:25:23.860Z,97.02
2019-04-01T02:26:23.748Z,96.45
2019-04-01T02:27:23.638Z,96.16
2019-04-01T02:28:23.538Z,96.92
2019-04-01T02:29:23.426Z,96.83
2019-04-01T02:30:23.316Z,96.92
2019-04-01T02:31:23.205Z,96.35
2019-04-01T02:32:23.100Z,96.54
2019-04-01T02:33:22.990Z,96.45
2019-04-01T02:34:22.882Z,96.73
2019-04-01T02:35:22.774Z,96.92
2019-04-01T02:36:22.675Z,96.73
2019-04-01T02:37:22.557Z,97.20
2019-04-01T02:38:22.527Z,96.26
2019-04-01T02:39:22.342Z,96.64
2019-04-01T02:40:22.499Z,97.39
2019-04-01T02:41:22.136Z,96.73
2019-04-01T02:42:22.016Z,97.02
2019-04-01T02:43:21.909Z,96.92
2019-04-01T02:44:22.104Z,96.64
2019-04-01T02:45:21.693Z,96.83
2019-04-01T02:46:21.588Z,97.02
2019-04-01T02:47:21.483Z,96.92
2019-04-01T02:48:21.370Z,97.02
2019-04-01T02:49:21.262Z,96.73
2019-04-01T02:50:21.155Z,96.73
2019-04-01T02:51:21.043Z,96.92
2019-04-01T02:52:20.940Z,96.07
2019-04-01T02:53:20.827Z,96.54
2019-04-01T02:54:20.721Z,97.02
2019-04-01T02:55:20.611Z,96.64
2019-04-01T02:56:20.512Z,96.45
2019-04-01T02:57:20.437Z,97.02
2019-04-01T02:58:20.290Z,96.31
2019-04-01T02:59:20.179Z,96.97
2019-04-01T03:00:20.075Z,96.97
2019-04-01T03:01:19.964Z,96.21
2019-04-01T03:02:19.855Z,96.12
2019-04-01T03:03:19.747Z,96.69
2019-04-01T03:04:19.638Z,96.88
2019-04-01T03:05:19.537Z,96.88
2019-04-01T03:06:19.440Z,96.88
2019-04-01T03:07:19.313Z,95.26
2019-04-01T03:08:19.204Z,96.59
2019-04-01T03:09:19.098Z,96.50
2019-04-01T03:10:18.990Z,96.40
2019-04-01T03:11:18.896Z,96.59
2019-04-01T03:12:18.771Z,96.12
2019-04-01T03:13:18.665Z,96.40
2019-04-01T03:14:18.590Z,95.83
2019-04-01T03:15:18.503Z,96.12
2019-04-01T03:16:18.382Z,96.50
2019-04-01T03:17:18.244Z,95.93
2019-04-01T03:18:18.124Z,95.64
2019-04-01T03:19:18.014Z,95.45
2019-04-01T03:20:17.905Z,95.36
2019-04-01T03:21:17.798Z,95.64
2019-04-01T03:22:17.688Z,95.07
2019-04-01T03:23:17.580Z,95.93
2019-04-01T03:24:17.476Z,95.74
2019-04-01T03:25:17.368Z,95.83
2019-04-01T03:26:17.256Z,94.89
2019-04-01T03:27:17.496Z,95.55
2019-04-01T03:28:17.039Z,95.36
2019-04-01T03:29:16.929Z,95.17
2019-04-01T03:30:16.830Z,95.55
2019-04-01T03:31:16.711Z,93.37
2019-04-01T03:32:16.635Z,95.12
2019-04-01T03:33:16.522Z,93.89
2019-04-01T03:34:16.458Z,94.46
2019-04-01T03:35:16.284Z,93.80
2019-04-01T03:36:16.170Z,94.93
2019-04-01T03:37:16.065Z,93.99
2019-04-01T03:38:15.956Z,94.46
2019-04-01T03:39:15.889Z,94.37
2019-04-01T03:40:15.739Z,92.19
2019-04-01T03:41:15.628Z,93.80
2019-04-01T03:42:15.522Z,92.76
2019-04-01T03:43:15.412Z,93.99
2019-04-01T03:44:15.303Z,94.56
2019-04-01T03:45:15.195Z,94.98
2019-04-01T03:46:15.086Z,95.07
2019-04-01T03:47:14.982Z,95.36
2019-04-01T03:48:14.869Z,95.31
2019-04-01T03:49:14.760Z,93.66
2019-04-01T03:50:14.653Z,93.99
2019-04-01T03:51:14.545Z,94.79
2019-04-01T03:52:14.474Z,94.08
2019-04-01T03:53:14.367Z,93.80
2019-04-01T03:54:14.219Z,95.07
2019-04-01T03:55:14.107Z,94.18
2019-04-01T03:56:14.000Z,94.93
2019-04-01T03:57:13.892Z,94.93
2019-04-01T03:58:13.783Z,94.18
2019-04-01T03:59:13.674Z,94.79
2019-04-01T04:00:13.572Z,94.93
2019-04-01T04:01:13.455Z,94.65
2019-04-01T04:02:13.350Z,93.70
2019-04-01T04:03:13.238Z,94.51
2019-04-01T04:04:13.131Z,93.42
2019-04-01T04:05:13.023Z,93.13
2019-04-01T04:06:12.913Z,93.70
2019-04-01T04:07:12.810Z,94.18
2019-04-01T04:08:12.710Z,93.51
2019-04-01T04:09:12.588Z,92.66
2019-04-01T04:10:12.478Z,92.57
2019-04-01T04:11:12.402Z,92.00
2019-04-01T04:12:12.276Z,93.04
2019-04-01T04:13:12.155Z,92.76
2019-04-01T04:14:12.050Z,92.00
2019-04-01T04:15:11.935Z,92.38
2019-04-01T04:16:11.857Z,91.34
2019-04-01T04:17:11.718Z,91.43
2019-04-01T04:18:11.625Z,91.34
2019-04-01T04:19:11.502Z,91.43
2019-04-01T04:20:11.390Z,92.66
2019-04-01T04:21:11.282Z,92.38
2019-04-01T04:22:11.174Z,92.10
2019-04-01T04:23:11.066Z,91.15
2019-04-01T04:24:10.962Z,92.29
2019-04-01T04:25:10.849Z,91.05
2019-04-01T04:26:10.737Z,89.54
2019-04-01T04:27:11.405Z,90.20
2019-04-01T04:28:10.519Z,91.24
2019-04-01T04:29:10.421Z,90.58
2019-04-01T04:30:10.378Z,91.05
2019-04-01T04:31:10.192Z,90.86
2019-04-01T04:32:10.088Z,91.43
2019-04-01T04:33:10.066Z,92.10
2019-04-01T04:34:09.865Z,92.85
2019-04-01T04:35:09.755Z,93.04
2019-04-01T04:36:09.650Z,93.70
2019-04-01T04:37:09.545Z,93.51
2019-04-01T04:38:09.427Z,93.04
2019-04-01T04:39:09.322Z,93.42
2019-04-01T04:40:09.212Z,94.65
2019-04-01T04:41:09.107Z,94.27
2019-04-01T04:42:08.995Z,94.93
2019-04-01T04:43:08.885Z,95.03
2019-04-01T04:44:08.777Z,95.21
2019-04-01T04:45:08.667Z,95.50
2019-04-01T04:46:08.557Z,94.56
2019-04-01T04:47:08.450Z,94.84
2019-04-01T04:48:08.367Z,95.12
2019-04-01T04:49:08.294Z,94.84
2019-04-01T04:50:08.125Z,94.27
2019-04-01T04:51:08.011Z,94.56
2019-04-01T04:52:07.905Z,93.80
2019-04-01T04:53:07.795Z,93.80
2019-04-01T04:54:07.689Z,93.99
2019-04-01T04:55:07.578Z,93.13
2019-04-01T04:56:07.467Z,94.18
2019-04-01T04:57:07.364Z,93.94
2019-04-01T04:58:07.253Z,94.42
2019-04-01T04:59:07.143Z,95.83
2019-04-01T05:00:07.033Z,96.69
2019-04-01T05:01:06.923Z,97.53
2019-04-01T05:02:06.817Z,97.30
2019-04-01T05:03:06.708Z,97.68
2019-04-01T05:04:06.600Z,98.63
2019-04-01T05:05:06.496Z,99.48
2019-04-01T05:06:06.383Z,98.01
2019-04-01T05:07:06.342Z,99.05
2019-04-01T05:08:06.165Z,98.01
2019-04-01T05:09:06.057Z,98.30
2019-04-01T05:10:05.953Z,98.30
2019-04-01T05:11:05.841Z,98.16
2019-04-01T05:12:05.733Z,97.78
2019-04-01T05:13:05.624Z,98.35
2019-04-01T05:14:05.521Z,98.16
2019-04-01T05:15:05.408Z,97.54
2019-04-01T05:16:05.301Z,97.45
2019-04-01T05:17:05.194Z,97.45
2019-04-01T05:18:05.090Z,97.26
2019-04-01T05:19:04.986Z,96.41
2019-04-01T05:20:04.869Z,96.78
2019-04-01T05:21:04.763Z,96.36
2019-04-01T05:22:04.654Z,95.98
2019-04-01T05:23:04.552Z,95.50
2019-04-01T05:24:04.444Z,95.50
2019-04-01T05:25:04.334Z,94.65
2019-04-01T05:26:04.249Z,94.51
2019-04-01T05:27:04.118Z,94.08
2019-04-01T05:28:04.013Z,93.70
2019-04-01T05:29:03.905Z,93.56
2019-04-01T05:30:03.804Z,93.04
2019-04-01T05:31:03.693Z,92.23
2019-04-01T05:32:03.589Z,91.38
2019-04-01T05:33:03.479Z,89.95
2019-04-01T05:34:03.372Z,89.24
2019-04-01T05:35:03.270Z,87.15
2019-04-01T05:36:03.158Z,86.77
2019-04-01T05:37:03.052Z,85.82
2019-04-01T05:38:02.950Z,85.25
2019-04-01T05:39:03.141Z,83.73
2019-04-01T05:40:02.734Z,83.07
2019-04-01T05:41:02.631Z,82.31
2019-04-01T05:42:02.526Z,82.31
2019-04-01T05:43:02.416Z,81.59
2019-04-01T05:44:02.583Z,79.50
2019-04-01T05:45:02.234Z,78.83
2019-04-01T05:46:02.100Z,79.22
2019-04-01T05:47:01.992Z,78.83
2019-04-01T05:48:01.889Z,78.27
2019-04-01T05:49:01.784Z,77.55
2019-04-01T05:50:01.679Z,76.59
2019-04-01T05:51:01.573Z,75.07
2019-04-01T05:52:01.468Z,75.07
2019-04-01T05:53:01.363Z,74.31
2019-04-01T05:54:01.259Z,74.37
2019-04-01T05:55:01.157Z,75.23
2019-04-01T05:56:01.047Z,75.04
2019-04-01T05:57:00.942Z,74.85
2019-04-01T05:58:00.840Z,74.51
2019-04-01T05:59:01.034Z,74.03
2019-04-01T06:00:00.631Z,72.99
2019-04-01T06:01:00.524Z,73.55
2019-04-01T06:02:00.422Z,72.99
2019-04-01T06:03:00.324Z,72.35
2019-04-01T06:04:00.272Z,71.02
2019-04-01T06:05:00.343Z,70.93
2019-04-01T06:06:00.005Z,70.45
2019-04-01T06:06:59.898Z,70.26
2019-04-01T06:07:59.796Z,70.45
2019-04-01T06:08:59.692Z,70.07
2019-04-01T06:09:59.591Z,69.73
2019-04-01T06:10:59.484Z,69.31
2019-04-01T06:11:59.381Z,69.69
2019-04-01T06:12:59.317Z,69.50
2019-04-01T06:13:59.175Z,69.50
2019-04-01T06:14:59.067Z,69.50
2019-04-01T06:15:58.967Z,70.32
2019-04-01T06:16:58.867Z,71.08
2019-04-01T06:17:58.761Z,71.31
2019-04-01T06:18:58.957Z,70.93
2019-04-01T06:19:58.555Z,70.83
2019-04-01T06:20:58.450Z,70.54
2019-04-01T06:21:58.353Z,70.45
2019-04-01T06:22:58.244Z,70.64
2019-04-01T06:23:58.177Z,70.07
2019-04-01T06:24:58.037Z,70.17
2019-04-01T06:25:57.939Z,69.25
2019-04-01T06:26:57.829Z,68.77
2019-04-01T06:27:57.729Z,68.24
2019-04-01T06:28:57.625Z,67.19
2019-04-01T06:29:59.221Z,66.68
2019-04-01T06:30:57.420Z,66.91
2019-04-01T06:31:57.318Z,65.95
2019-04-01T06:32:57.220Z,66.75
2019-04-01T06:33:57.113Z,65.58
2019-04-01T06:34:57.017Z,65.77
2019-04-01T06:35:56.908Z,65.38
2019-04-01T06:36:56.805Z,64.72
2019-04-01T06:37:56.702Z,64.24
2019-04-01T06:38:56.599Z,64.43
2019-04-01T06:39:56.498Z,64.90
2019-04-01T06:40:56.395Z,63.29
2019-04-01T06:41:56.295Z,63.86
2019-04-01T06:42:56.255Z,63.60
2019-04-01T06:43:56.147Z,63.23
2019-04-01T06:44:55.987Z,63.04
2019-04-01T06:45:55.888Z,61.90
2019-04-01T06:46:55.783Z,61.61
2019-04-01T06:47:55.683Z,62.08
2019-04-01T06:48:55.581Z,61.51
2019-04-01T06:49:55.480Z,61.99
2019-04-01T06:50:55.378Z,61.80
2019-04-01T06:51:55.280Z,61.96
2019-04-01T06:52:55.176Z,62.34
2019-04-01T06:53:55.138Z,62.21
2019-04-01T06:54:54.973Z,63.17
2019-04-01T06:55:54.872Z,64.02
2019-04-01T06:56:54.772Z,64.02
2019-04-01T06:57:54.701Z,63.86
2019-04-01T06:58:54.568Z,62.43
2019-04-01T06:59:54.468Z,63.01
2019-04-01T07:00:54.365Z,62.81
2019-04-01T07:01:54.267Z,62.91
2019-04-01T07:02:54.203Z,63.20
2019-04-01T07:03:54.125Z,63.01
2019-04-01T07:04:53.963Z,62.62
2019-04-01T07:05:53.862Z,61.99
2019-04-01T07:06:53.759Z,62.18
2019-04-01T07:07:53.659Z,61.32
2019-04-01T07:08:53.555Z,60.56
2019-04-01T07:09:53.458Z,61.32
2019-04-01T07:10:53.356Z,60.56
2019-04-01T07:11:53.256Z,61.35
2019-04-01T07:12:53.156Z,60.21
2019-04-01T07:13:53.056Z,60.08
2019-04-01T07:14:52.956Z,59.99
2019-04-01T07:15:52.854Z,60.53
2019-04-01T07:16:52.750Z,61.26
2019-04-01T07:17:52.658Z,62.56
2019-04-01T07:18:52.550Z,64.65
2019-04-01T07:19:52.452Z,65.95
2019-04-01T07:20:52.348Z,66.87
2019-04-01T07:21:54.449Z,67.91
2019-04-01T07:22:52.172Z,69.96
2019-04-01T07:23:52.116Z,70.35
2019-04-01T07:24:51.938Z,71.04
2019-04-01T07:25:51.835Z,71.01
2019-04-01T07:26:51.732Z,70.73
2019-04-01T07:27:51.630Z,71.39
2019-04-01T07:28:51.526Z,70.73
2019-04-01T07:29:51.423Z,71.20
2019-04-01T07:30:51.318Z,70.92
2019-04-01T07:31:51.215Z,71.48
2019-04-01T07:32:51.113Z,71.58
2019-04-01T07:33:51.015Z,71.77
2019-04-01T07:34:50.907Z,72.34
2019-04-01T07:35:50.803Z,71.48
2019-04-01T07:36:50.732Z,71.20
2019-04-01T07:37:50.595Z,70.82
2019-04-01T07:38:50.490Z,71.20
2019-04-01T07:39:50.387Z,71.01
2019-04-01T07:40:50.284Z,71.20
2019-04-01T07:41:50.179Z,71.20
2019-04-01T07:42:50.140Z,70.06
2019-04-01T07:43:49.973Z,70.25
2019-04-01T07:44:49.865Z,69.87
2019-04-01T07:45:49.759Z,69.59
2019-04-01T07:46:49.656Z,69.96
2019-04-01T07:47:51.587Z,69.87
2019-04-01T07:48:49.447Z,69.21
2019-04-01T07:49:49.343Z,70.06
2019-04-01T07:50:49.240Z,70.15
2019-04-01T07:51:49.144Z,69.40
2019-04-01T07:52:49.028Z,69.11
2019-04-01T07:53:48.926Z,68.92
2019-04-01T07:54:48.820Z,68.26
2019-04-01T07:55:48.714Z,68.29
2019-04-01T07:56:48.608Z,68.01
2019-04-01T07:57:48.507Z,67.91
2019-04-01T07:58:48.397Z,67.69
2019-04-01T07:59:48.295Z,66.74
2019-04-01T08:00:48.188Z,67.31
2019-04-01T08:01:48.134Z,66.87
2019-04-01T08:02:49.107Z,66.87
2019-04-01T08:03:47.875Z,66.87
2019-04-01T08:04:47.771Z,66.49
2019-04-01T08:05:47.666Z,66.11
2019-04-01T08:06:47.570Z,66.30
2019-04-01T08:07:47.453Z,65.63
2019-04-01T08:08:47.355Z,66.11
2019-04-01T08:09:47.246Z,65.92
2019-04-01T08:10:47.140Z,65.73
2019-04-01T08:11:49.882Z,65.16
2019-04-01T08:12:46.936Z,64.78
2019-04-01T08:13:46.828Z,64.69
2019-04-01T08:14:46.729Z,65.16
2019-04-01T08:15:46.616Z,65.28
2019-04-01T08:16:46.514Z,65.00
2019-04-01T08:17:46.407Z,64.72
2019-04-01T08:18:46.301Z,63.92
2019-04-01T08:19:46.198Z,63.57
2019-04-01T08:20:46.092Z,63.48
2019-04-01T08:21:46.023Z,63.95
2019-04-01T08:22:45.888Z,64.53
2019-04-01T08:23:45.776Z,63.57
2019-04-01T08:24:45.672Z,63.76
2019-04-01T08:25:47.922Z,63.76
2019-04-01T08:26:45.461Z,63.48
2019-04-01T08:27:45.356Z,63.48
2019-04-01T08:28:45.253Z,64.14
2019-04-01T08:29:45.149Z,63.35
2019-04-01T08:30:45.050Z,64.53
2019-04-01T08:31:44.938Z,63.73
2019-04-01T08:32:44.834Z,63.45
2019-04-01T08:33:44.729Z,64.34
2019-04-01T08:34:44.625Z,63.86
2019-04-01T08:35:44.518Z,62.81
2019-04-01T08:36:44.416Z,63.39
2019-04-01T08:37:44.312Z,62.81
2019-04-01T08:38:44.206Z,62.72
2019-04-01T08:39:44.102Z,62.62
2019-04-01T08:40:44.074Z,62.91
2019-04-01T08:41:43.894Z,63.67
2019-04-01T08:42:43.787Z,62.81
2019-04-01T08:43:43.690Z,62.72
2019-04-01T08:44:43.579Z,62.72
2019-04-01T08:45:43.474Z,62.62
2019-04-01T08:46:43.378Z,62.62
2019-04-01T08:47:43.263Z,63.29
2019-04-01T08:48:43.159Z,63.57
2019-04-01T08:49:43.055Z,62.72
2019-04-01T08:50:42.950Z,62.81
2019-04-01T08:51:42.846Z,62.81
2019-04-01T08:52:42.744Z,62.81
2019-04-01T08:53:42.637Z,62.81
2019-04-01T08:54:42.533Z,64.24
2019-04-01T08:55:42.427Z,63.76
2019-04-01T08:56:42.324Z,63.86
2019-04-01T08:57:42.219Z,63.70
2019-04-01T08:58:42.115Z,63.51
2019-04-01T08:59:42.077Z,63.42
2019-04-01T09:00:41.937Z,62.75
2019-04-01T09:01:41.801Z,61.58
2019-04-01T09:02:41.698Z,61.96
2019-04-01T09:03:41.593Z,61.39
2019-04-01T09:04:41.490Z,61.48
2019-04-01T09:05:41.463Z,62.34
2019-04-01T09:06:41.282Z,63.57
2019-04-01T09:07:41.191Z,63.67
2019-04-01T09:08:41.073Z,62.53
2019-04-01T09:09:40.967Z,61.96
2019-04-01T09:10:40.862Z,61.29
2019-04-01T09:11:40.758Z,61.20
2019-04-01T09:12:40.653Z,62.08
2019-04-01T09:13:40.550Z,61.48
2019-04-01T09:14:40.444Z,61.23
2019-04-01T09:15:40.339Z,61.71
2019-04-01T09:16:40.239Z,61.42
2019-04-01T09:17:40.560Z,62.08
2019-04-01T09:18:40.032Z,61.32
2019-04-01T09:19:39.954Z,60.85
2019-04-01T09:20:39.818Z,60.75
2019-04-01T09:21:39.714Z,61.13
2019-04-01T09:22:39.612Z,61.32
2019-04-01T09:23:39.505Z,60.75
2019-04-01T09:24:39.403Z,60.57
2019-04-01T09:25:39.298Z,59.71
2019-04-01T09:26:39.193Z,59.96
2019-04-01T09:27:39.090Z,60.44
2019-04-01T09:28:38.984Z,60.06
2019-04-01T09:29:38.882Z,60.16
2019-04-01T09:30:38.776Z,60.38
2019-04-01T09:31:38.672Z,61.13
2019-04-01T09:32:38.572Z,60.38
2019-04-01T09:33:38.464Z,60.66
2019-04-01T09:34:38.361Z,60.85
2019-04-01T09:35:40.907Z,60.47
2019-04-01T09:36:38.152Z,60.09
2019-04-01T09:37:38.049Z,59.61
2019-04-01T09:38:37.999Z,59.68
2019-04-01T09:39:37.839Z,59.90
2019-04-01T09:40:37.733Z,60.66
2019-04-01T09:41:37.629Z,60.35
2019-04-01T09:42:37.525Z,60.28
2019-04-01T09:43:37.421Z,61.13
2019-04-01T09:44:37.425Z,60.66
2019-04-01T09:45:37.213Z,61.13
2019-04-01T09:46:37.110Z,61.32
2019-04-01T09:47:37.005Z,61.32
2019-04-01T09:48:36.903Z,61.13
2019-04-01T09:49:36.799Z,60.66
2019-04-01T09:50:36.691Z,60.75
2019-04-01T09:51:48.029Z,61.55
2019-04-01T09:52:36.489Z,61.52
2019-04-01T09:53:36.380Z,61.35
2019-04-01T09:54:36.274Z,60.31
2019-04-01T09:55:36.171Z,60.38
2019-04-01T09:56:36.068Z,59.80
2019-04-01T09:57:35.981Z,58.95
2019-04-01T09:58:35.917Z,58.18
2019-04-01T09:59:35.756Z,57.43
2019-04-01T10:00:35.649Z,58.18
2019-04-01T10:01:35.547Z,58.85
2019-04-01T10:02:35.443Z,59.33
2019-04-01T10:03:35.340Z,58.85
2019-04-01T10:04:35.233Z,59.71
2019-04-01T10:05:35.131Z,60.09
2019-04-01T10:06:35.026Z,59.14
2019-04-01T10:07:35.020Z,58.18
2019-04-01T10:08:41.924Z,58.69
2019-04-01T10:09:34.714Z,58.03
2019-04-01T10:10:34.609Z,56.98
2019-04-01T10:11:34.506Z,57.26
2019-04-01T10:12:34.403Z,56.98
2019-04-01T10:13:34.298Z,57.17
2019-04-01T10:14:34.194Z,57.17
2019-04-01T10:15:34.088Z,57.55
2019-04-01T10:16:33.984Z,58.22
2019-04-01T10:17:33.939Z,59.07
2019-04-01T10:18:34.077Z,58.50
2019-04-01T10:19:33.675Z,58.03
2019-04-01T10:20:33.570Z,57.55
2019-04-01T10:21:33.467Z,57.55
2019-04-01T10:22:33.362Z,57.36
2019-04-01T10:23:33.257Z,57.45
2019-04-01T10:24:33.155Z,57.93
2019-04-01T10:25:33.051Z,57.55
2019-04-01T10:26:32.977Z,56.22
2019-04-01T10:27:32.843Z,55.36
2019-04-01T10:28:32.741Z,55.36
2019-04-01T10:29:32.636Z,54.69
2019-04-01T10:30:32.531Z,54.79
2019-04-01T10:31:32.427Z,55.17
2019-04-01T10:32:32.324Z,55.27
2019-04-01T10:33:32.222Z,55.36
2019-04-01T10:34:34.110Z,55.49
2019-04-01T10:35:32.014Z,55.68
2019-04-01T10:36:31.947Z,55.36
2019-04-01T10:37:31.871Z,55.65
2019-04-01T10:38:31.703Z,54.13
2019-04-01T10:39:31.599Z,52.13
2019-04-01T10:40:31.496Z,52.51
2019-04-01T10:41:31.391Z,53.36
2019-04-01T10:42:31.287Z,54.32
2019-04-01T10:43:31.183Z,54.98
2019-04-01T10:44:31.084Z,56.03
2019-04-01T10:45:30.978Z,56.41
2019-04-01T10:46:30.872Z,56.41
2019-04-01T10:47:30.852Z,56.34
2019-04-01T10:48:30.699Z,55.68
2019-04-01T10:49:32.100Z,54.35
2019-04-01T10:50:30.546Z,54.35
2019-04-01T10:51:30.376Z,54.15
2019-04-01T10:52:30.257Z,54.15
2019-04-01T10:53:30.185Z,54.06
2019-04-01T10:54:30.082Z,54.25
2019-04-01T10:55:30.012Z,54.53
2019-04-01T10:56:29.914Z,54.91
2019-04-01T10:57:29.735Z,56.34
2019-04-01T10:58:29.627Z,55.29
2019-04-01T10:59:29.573Z,54.91
2019-04-01T11:00:29.476Z,55.01
2019-04-01T11:01:29.334Z,54.35
2019-04-01T11:02:29.215Z,54.44
2019-04-01T11:03:29.126Z,54.44
2019-04-01T11:04:29.033Z,53.77
2019-04-01T11:05:28.904Z,53.96
2019-04-01T11:06:28.831Z,54.35
2019-04-01T11:07:28.739Z,54.15
2019-04-01T11:08:28.642Z,53.39
2019-04-01T11:09:38.284Z,53.96
2019-04-01T11:10:28.387Z,54.53
2019-04-01T11:11:28.284Z,53.49
2019-04-01T11:12:28.179Z,53.77
2019-04-01T11:13:28.079Z,53.20
2019-04-01T11:14:27.972Z,53.01
2019-04-01T11:15:27.919Z,53.30
2019-04-01T11:16:31.449Z,53.87
2019-04-01T11:17:27.664Z,54.18
2019-04-01T11:18:27.569Z,54.35
2019-04-01T11:19:27.458Z,53.58
2019-04-01T11:20:27.353Z,53.11
2019-04-01T11:21:27.253Z,53.01
2019-04-01T11:22:27.146Z,53.77
2019-04-01T11:23:27.045Z,54.63
2019-04-01T11:24:26.944Z,54.35
2019-04-01T11:25:26.841Z,53.49
2019-04-01T11:26:26.734Z,52.25
2019-04-01T11:27:26.633Z,52.06
2019-04-01T11:28:26.528Z,52.25
2019-04-01T11:29:26.461Z,52.92
2019-04-01T11:30:26.323Z,52.92
2019-04-01T11:31:26.246Z,52.92
2019-04-01T11:32:26.145Z,52.15
2019-04-01T11:33:26.027Z,53.11
2019-04-01T11:34:25.954Z,52.84
2019-04-01T11:35:25.870Z,52.66
2019-04-01T11:36:25.735Z,52.28
2019-04-01T11:37:25.657Z,52.18
2019-04-01T11:38:25.507Z,51.42
2019-04-01T11:39:25.435Z,51.70
2019-04-01T11:40:25.290Z,51.99
2019-04-01T11:41:25.232Z,52.37
2019-04-01T11:42:25.113Z,52.18
2019-04-01T11:43:25.001Z,51.58
2019-04-01T11:44:24.927Z,52.18
2019-04-01T11:45:24.778Z,51.99
2019-04-01T11:46:24.691Z,52.18
2019-04-01T11:47:24.572Z,51.80
2019-04-01T11:48:24.492Z,53.23
2019-04-01T11:49:24.387Z,53.23
2019-04-01T11:50:25.130Z,53.32
2019-04-01T11:51:32.660Z,53.13
2019-04-01T11:52:24.074Z,52.66
2019-04-01T11:53:23.948Z,51.99
2019-04-01T11:54:23.879Z,52.09
2019-04-01T11:55:23.794Z,51.99
2019-04-01T11:56:26.420Z,51.80
2019-04-01T11:57:23.536Z,52.37
2019-04-01T11:58:23.430Z,52.28
2019-04-01T11:59:23.327Z,53.04
2019-04-01T12:00:26.237Z,52.66
2019-04-01T12:01:23.121Z,52.84
2019-04-01T12:02:23.019Z,52.66
2019-04-01T12:03:22.918Z,52.78
2019-04-01T12:04:22.813Z,52.20
2019-04-01T12:05:22.710Z,52.11
2019-04-01T12:06:22.607Z,52.20
2019-04-01T12:07:22.503Z,51.92
2019-04-01T12:08:22.402Z,52.30
2019-04-01T12:09:22.298Z,53.25
2019-04-01T12:10:22.194Z,52.11
2019-04-01T12:11:22.091Z,52.20
2019-04-01T12:12:24.020Z,52.20
2019-04-01T12:13:21.893Z,52.87
2019-04-01T12:14:21.836Z,53.25
2019-04-01T12:15:21.761Z,53.16
2019-04-01T12:16:21.577Z,51.73
2019-04-01T12:17:21.477Z,49.63
2019-04-01T12:18:21.373Z,49.44
2019-04-01T12:19:21.270Z,49.73
2019-04-01T12:20:21.167Z,50.30
2019-04-01T12:21:21.064Z,50.49
2019-04-01T12:22:20.960Z,50.49
2019-04-01T12:23:20.860Z,51.35
2019-04-01T12:24:20.758Z,50.87
2019-04-01T12:25:20.652Z,51.32
2019-04-01T12:26:20.550Z,50.94
2019-04-01T12:27:20.448Z,51.45
2019-04-01T12:28:20.348Z,51.92
2019-04-01T12:29:20.244Z,51.73
2019-04-01T12:30:20.144Z,51.82
2019-04-01T12:31:21.584Z,52.40
2019-04-01T12:32:20.651Z,52.59
2019-04-01T12:33:19.834Z,52.23
2019-04-01T12:34:19.793Z,51.76
2019-04-01T12:35:19.702Z,49.63
2019-04-01T12:36:19.605Z,48.58
2019-04-01T12:37:19.421Z,49.26
2019-04-01T12:38:19.317Z,49.63
2019-04-01T12:39:19.217Z,49.44
2019-04-01T12:40:19.117Z,49.73
2019-04-01T12:41:19.070Z,49.54
2019-04-01T12:42:19.667Z,49.35
2019-04-01T12:43:18.819Z,49.54
2019-04-01T12:44:18.702Z,50.21
2019-04-01T12:45:18.603Z,50.49
2019-04-01T12:46:18.498Z,50.40
2019-04-01T12:47:18.395Z,50.21
2019-04-01T12:48:18.292Z,50.49
2019-04-01T12:49:18.189Z,50.59
2019-04-01T12:50:18.086Z,50.59
2019-04-01T12:51:17.982Z,50.78